<?xml version='1.0' encoding='UTF-8'?><gpx version="1.1" creator="JPX - https://github.com/jenetics/jpx" xmlns="http://www.topografix.com/GPX/1/1"><trk><trkseg><trkpt lat="44.4257042" lon="8.8173278"><ele>11.999999999999998</ele><time>2026-04-06T08:35:38.297Z</time></trkpt><trkpt lat="44.4257855" lon="8.8172979"><ele>12.0</ele><time>2026-04-06T08:35:44.298Z</time></trkpt><trkpt lat="44.4257918" lon="8.817398"><ele>12.0</ele><time>2026-04-06T08:36:07.297Z</time></trkpt><trkpt lat="44.4257461" lon="8.8173194"><ele>12.0</ele><time>2026-04-06T08:36:43.298Z</time></trkpt><trkpt lat="44.4256703" lon="8.8173064"><ele>12.0</ele><time>2026-04-06T08:36:48.297Z</time></trkpt><trkpt lat="44.42562" lon="8.8172448"><ele>11.999999999999998</ele><time>2026-04-06T08:36:53.291Z</time></trkpt><trkpt lat="44.4255542" lon="8.817249"><ele>12.0</ele><time>2026-04-06T08:36:58.297Z</time></trkpt><trkpt lat="44.4254858" lon="8.8172742"><ele>11.142857142857142</ele><time>2026-04-06T08:37:03.868Z</time></trkpt><trkpt lat="44.4254208" lon="8.8173084"><ele>10.285714285714285</ele><time>2026-04-06T08:37:10.006Z</time></trkpt><trkpt lat="44.4253467" lon="8.817325"><ele>9.428571428571427</ele><time>2026-04-06T08:37:18.306Z</time></trkpt><trkpt lat="44.4252726" lon="8.8173397"><ele>8.571428571428571</ele><time>2026-04-06T08:37:28.283Z</time></trkpt><trkpt lat="44.4251945" lon="8.8173333"><ele>7.7142857142857135</ele><time>2026-04-06T08:37:34.298Z</time></trkpt><trkpt lat="44.425128" lon="8.8173418"><ele>6.857142857142857</ele><time>2026-04-06T08:37:41.298Z</time></trkpt><trkpt lat="44.4250589" lon="8.8173422"><ele>6.0</ele><time>2026-04-06T08:37:46.297Z</time></trkpt><trkpt lat="44.4250156" lon="8.8172767"><ele>5.999999999999999</ele><time>2026-04-06T08:37:55.271Z</time></trkpt><trkpt lat="44.4250185" lon="8.8171792"><ele>6.0</ele><time>2026-04-06T08:38:01.17Z</time></trkpt><trkpt lat="44.4250124" lon="8.8170765"><ele>6.0</ele><time>2026-04-06T08:38:04.626Z</time></trkpt><trkpt lat="44.4250038" lon="8.8169753"><ele>6.0</ele><time>2026-04-06T08:38:08.182Z</time></trkpt><trkpt lat="44.4249975" lon="8.8168803"><ele>6.0</ele><time>2026-04-06T08:38:12.284Z</time></trkpt><trkpt lat="44.4249912" lon="8.8167854"><ele>5.999999999999999</ele><time>2026-04-06T08:38:17.296Z</time></trkpt><trkpt lat="44.4250174" lon="8.8166552"><ele>6.0</ele><time>2026-04-06T08:38:31.296Z</time></trkpt><trkpt lat="44.4250102" lon="8.8165662"><ele>6.285714285714285</ele><time>2026-04-06T08:38:36.296Z</time></trkpt><trkpt lat="44.4249832" lon="8.8164839"><ele>6.571428571428571</ele><time>2026-04-06T08:38:41.296Z</time></trkpt><trkpt lat="44.4249646" lon="8.8163915"><ele>6.857142857142857</ele><time>2026-04-06T08:38:48.305Z</time></trkpt><trkpt lat="44.4249514" lon="8.8162944"><ele>7.142857142857142</ele><time>2026-04-06T08:38:54.218Z</time></trkpt><trkpt lat="44.4249325" lon="8.8161964"><ele>7.428571428571428</ele><time>2026-04-06T08:39:01.296Z</time></trkpt><trkpt lat="44.4249167" lon="8.8161029"><ele>7.7142857142857135</ele><time>2026-04-06T08:39:08.296Z</time></trkpt><trkpt lat="44.4248995" lon="8.8160094"><ele>8.0</ele><time>2026-04-06T08:39:18.296Z</time></trkpt><trkpt lat="44.4248885" lon="8.815905"><ele>8.428571428571429</ele><time>2026-04-06T08:39:28.296Z</time></trkpt><trkpt lat="44.4248616" lon="8.8158061"><ele>8.857142857142856</ele><time>2026-04-06T08:39:33.296Z</time></trkpt><trkpt lat="44.4248362" lon="8.8157158"><ele>9.285714285714285</ele><time>2026-04-06T08:39:39.296Z</time></trkpt><trkpt lat="44.4248282" lon="8.8156268"><ele>9.714285714285714</ele><time>2026-04-06T08:39:44.303Z</time></trkpt><trkpt lat="44.4248117" lon="8.8155413"><ele>10.142857142857142</ele><time>2026-04-06T08:39:49.296Z</time></trkpt><trkpt lat="44.4247918" lon="8.815454"><ele>10.571428571428571</ele><time>2026-04-06T08:39:55.214Z</time></trkpt><trkpt lat="44.424838" lon="8.8153871"><ele>11.0</ele><time>2026-04-06T08:40:19.296Z</time></trkpt><trkpt lat="44.4247917" lon="8.8153053"><ele>11.0</ele><time>2026-04-06T08:40:28.297Z</time></trkpt><trkpt lat="44.4247576" lon="8.8152234"><ele>11.0</ele><time>2026-04-06T08:40:34.296Z</time></trkpt><trkpt lat="44.4247302" lon="8.8151424"><ele>11.0</ele><time>2026-04-06T08:40:40.296Z</time></trkpt><trkpt lat="44.4247129" lon="8.8150465"><ele>11.0</ele><time>2026-04-06T08:40:41.296Z</time></trkpt><trkpt lat="44.4247023" lon="8.8149517"><ele>11.0</ele><time>2026-04-06T08:40:46.296Z</time></trkpt><trkpt lat="44.4246983" lon="8.8148"><ele>11.0</ele><time>2026-04-06T08:40:54.297Z</time></trkpt><trkpt lat="44.4247195" lon="8.8147117"><ele>11.0</ele><time>2026-04-06T08:41:01.296Z</time></trkpt><trkpt lat="44.4247268" lon="8.8145691"><ele>10.833333333333332</ele><time>2026-04-06T08:41:05.296Z</time></trkpt><trkpt lat="44.4247327" lon="8.8144798"><ele>10.666666666666666</ele><time>2026-04-06T08:41:14.277Z</time></trkpt><trkpt lat="44.4247423" lon="8.8143677"><ele>10.5</ele><time>2026-04-06T08:41:19.297Z</time></trkpt><trkpt lat="44.4247583" lon="8.8142482"><ele>10.333333333333334</ele><time>2026-04-06T08:41:27.296Z</time></trkpt><trkpt lat="44.4247757" lon="8.8141298"><ele>10.166666666666668</ele><time>2026-04-06T08:41:31.296Z</time></trkpt><trkpt lat="44.4247979" lon="8.8140294"><ele>10.0</ele><time>2026-04-06T08:41:35.296Z</time></trkpt><trkpt lat="44.424823" lon="8.813927"><ele>9.714285714285714</ele><time>2026-04-06T08:41:39.296Z</time></trkpt><trkpt lat="44.4248486" lon="8.813841"><ele>9.428571428571429</ele><time>2026-04-06T08:41:44.308Z</time></trkpt><trkpt lat="44.4248516" lon="8.8137403"><ele>9.142857142857142</ele><time>2026-04-06T08:41:50.296Z</time></trkpt><trkpt lat="44.4248481" lon="8.8136444"><ele>8.857142857142858</ele><time>2026-04-06T08:41:55.199Z</time></trkpt><trkpt lat="44.4248546" lon="8.8135371"><ele>8.571428571428571</ele><time>2026-04-06T08:42:00.115Z</time></trkpt><trkpt lat="44.4248634" lon="8.8134415"><ele>8.285714285714285</ele><time>2026-04-06T08:42:04.993Z</time></trkpt><trkpt lat="44.4248709" lon="8.8133439"><ele>8.0</ele><time>2026-04-06T08:42:10.298Z</time></trkpt><trkpt lat="44.4248937" lon="8.8132522"><ele>8.0</ele><time>2026-04-06T08:42:15.296Z</time></trkpt><trkpt lat="44.4248898" lon="8.8131522"><ele>7.999999999999999</ele><time>2026-04-06T08:42:20.297Z</time></trkpt><trkpt lat="44.4249001" lon="8.8130526"><ele>8.0</ele><time>2026-04-06T08:42:32.296Z</time></trkpt><trkpt lat="44.4248918" lon="8.8129469"><ele>8.0</ele><time>2026-04-06T08:42:36.297Z</time></trkpt><trkpt lat="44.4249126" lon="8.8128515"><ele>7.999999999999999</ele><time>2026-04-06T08:42:40.296Z</time></trkpt><trkpt lat="44.4249027" lon="8.8127588"><ele>8.0</ele><time>2026-04-06T08:42:45.238Z</time></trkpt><trkpt lat="44.4248807" lon="8.8126669"><ele>8.0</ele><time>2026-04-06T08:42:50.296Z</time></trkpt><trkpt lat="44.4248705" lon="8.8125667"><ele>7.800000000000001</ele><time>2026-04-06T08:43:02.296Z</time></trkpt><trkpt lat="44.4248481" lon="8.8124761"><ele>7.6000000000000005</ele><time>2026-04-06T08:43:12.297Z</time></trkpt><trkpt lat="44.424827" lon="8.8123828"><ele>7.3999999999999995</ele><time>2026-04-06T08:43:20.296Z</time></trkpt><trkpt lat="44.4248022" lon="8.8123011"><ele>7.199999999999999</ele><time>2026-04-06T08:43:27.296Z</time></trkpt><trkpt lat="44.4247506" lon="8.8120392"><ele>7.0</ele><time>2026-04-06T08:43:31.296Z</time></trkpt><trkpt lat="44.4247796" lon="8.8121786"><ele>7.0</ele><time>2026-04-06T08:43:32.296Z</time></trkpt><trkpt lat="44.4248122" lon="8.8120944"><ele>6.999999999999999</ele><time>2026-04-06T08:43:39.297Z</time></trkpt><trkpt lat="44.4248442" lon="8.8119348"><ele>6.999999999999999</ele><time>2026-04-06T08:43:44.296Z</time></trkpt><trkpt lat="44.4249459" lon="8.811817"><ele>7.0</ele><time>2026-04-06T08:43:53.297Z</time></trkpt><trkpt lat="44.4250093" lon="8.8117784"><ele>7.0</ele><time>2026-04-06T08:44:06.297Z</time></trkpt><trkpt lat="44.425134" lon="8.8117194"><ele>7.333333333333334</ele><time>2026-04-06T08:44:11.297Z</time></trkpt><trkpt lat="44.4250643" lon="8.8117681"><ele>7.666666666666667</ele><time>2026-04-06T08:44:12.297Z</time></trkpt><trkpt lat="44.4251552" lon="8.8117098"><ele>8.0</ele><time>2026-04-06T08:44:20.296Z</time></trkpt><trkpt lat="44.4251004" lon="8.8117556"><ele>8.333333333333334</ele><time>2026-04-06T08:44:24.28Z</time></trkpt><trkpt lat="44.4251755" lon="8.8117113"><ele>8.666666666666666</ele><time>2026-04-06T08:44:27.296Z</time></trkpt><trkpt lat="44.4250966" lon="8.8117571"><ele>9.0</ele><time>2026-04-06T08:44:28.296Z</time></trkpt><trkpt lat="44.4252476" lon="8.8116679"><ele>9.75</ele><time>2026-04-06T08:44:29.296Z</time></trkpt><trkpt lat="44.42548" lon="8.8114947"><ele>10.5</ele><time>2026-04-06T08:44:30.296Z</time></trkpt><trkpt lat="44.4255729" lon="8.8114056"><ele>11.25</ele><time>2026-04-06T08:44:51.296Z</time></trkpt><trkpt lat="44.4255798" lon="8.8113155"><ele>12.0</ele><time>2026-04-06T08:45:12.296Z</time></trkpt><trkpt lat="44.4256422" lon="8.8113334"><ele>12.0</ele><time>2026-04-06T08:45:24.296Z</time></trkpt><trkpt lat="44.4256943" lon="8.8112784"><ele>12.0</ele><time>2026-04-06T08:45:26.296Z</time></trkpt><trkpt lat="44.4257704" lon="8.8111993"><ele>12.0</ele><time>2026-04-06T08:45:33.275Z</time></trkpt><trkpt lat="44.4258254" lon="8.8111513"><ele>12.0</ele><time>2026-04-06T08:45:39.254Z</time></trkpt><trkpt lat="44.4258982" lon="8.8111042"><ele>12.0</ele><time>2026-04-06T08:45:46.296Z</time></trkpt><trkpt lat="44.4259645" lon="8.8110644"><ele>12.0</ele><time>2026-04-06T08:45:55.308Z</time></trkpt><trkpt lat="44.426049" lon="8.8110241"><ele>12.857142857142856</ele><time>2026-04-06T08:45:59.257Z</time></trkpt><trkpt lat="44.4261073" lon="8.810928"><ele>13.714285714285715</ele><time>2026-04-06T08:46:06.297Z</time></trkpt><trkpt lat="44.4261505" lon="8.8108492"><ele>14.571428571428573</ele><time>2026-04-06T08:46:13.296Z</time></trkpt><trkpt lat="44.4262004" lon="8.8107736"><ele>15.428571428571429</ele><time>2026-04-06T08:46:17.297Z</time></trkpt><trkpt lat="44.4262293" lon="8.8106803"><ele>16.285714285714285</ele><time>2026-04-06T08:46:24.296Z</time></trkpt><trkpt lat="44.4262674" lon="8.8105971"><ele>17.142857142857146</ele><time>2026-04-06T08:46:30.296Z</time></trkpt><trkpt lat="44.4263073" lon="8.8105233"><ele>18.0</ele><time>2026-04-06T08:46:35.297Z</time></trkpt><trkpt lat="44.4263522" lon="8.8104474"><ele>19.000000000000004</ele><time>2026-04-06T08:46:41.297Z</time></trkpt><trkpt lat="44.4263828" lon="8.8103653"><ele>20.0</ele><time>2026-04-06T08:46:59.296Z</time></trkpt><trkpt lat="44.4264141" lon="8.8102785"><ele>21.0</ele><time>2026-04-06T08:47:05.297Z</time></trkpt><trkpt lat="44.4264466" lon="8.8102004"><ele>22.0</ele><time>2026-04-06T08:47:14.296Z</time></trkpt><trkpt lat="44.4264831" lon="8.81012"><ele>23.0</ele><time>2026-04-06T08:47:22.296Z</time></trkpt><trkpt lat="44.4265263" lon="8.8100494"><ele>24.000000000000004</ele><time>2026-04-06T08:47:32.296Z</time></trkpt><trkpt lat="44.426556" lon="8.8099617"><ele>25.0</ele><time>2026-04-06T08:47:41.297Z</time></trkpt><trkpt lat="44.4266117" lon="8.8099036"><ele>26.166666666666668</ele><time>2026-04-06T08:47:47.296Z</time></trkpt><trkpt lat="44.4266694" lon="8.8098323"><ele>27.333333333333336</ele><time>2026-04-06T08:47:55.296Z</time></trkpt><trkpt lat="44.4266955" lon="8.8097437"><ele>28.5</ele><time>2026-04-06T08:48:05.296Z</time></trkpt><trkpt lat="44.4267796" lon="8.8095874"><ele>29.666666666666664</ele><time>2026-04-06T08:48:18.296Z</time></trkpt><trkpt lat="44.426797" lon="8.8094912"><ele>30.833333333333332</ele><time>2026-04-06T08:48:28.298Z</time></trkpt><trkpt lat="44.4268215" lon="8.8094042"><ele>32.0</ele><time>2026-04-06T08:48:35.297Z</time></trkpt><trkpt lat="44.4268473" lon="8.8093154"><ele>33.714285714285715</ele><time>2026-04-06T08:48:39.296Z</time></trkpt><trkpt lat="44.4268529" lon="8.8092241"><ele>35.42857142857142</ele><time>2026-04-06T08:48:45.297Z</time></trkpt><trkpt lat="44.4268463" lon="8.8091303"><ele>37.14285714285714</ele><time>2026-04-06T08:48:53.297Z</time></trkpt><trkpt lat="44.4268777" lon="8.8090399"><ele>38.857142857142854</ele><time>2026-04-06T08:49:10.296Z</time></trkpt><trkpt lat="44.4269117" lon="8.808957"><ele>40.57142857142857</ele><time>2026-04-06T08:49:16.253Z</time></trkpt><trkpt lat="44.4269305" lon="8.8088685"><ele>42.285714285714285</ele><time>2026-04-06T08:49:23.296Z</time></trkpt><trkpt lat="44.4269702" lon="8.8087698"><ele>44.0</ele><time>2026-04-06T08:49:31.296Z</time></trkpt><trkpt lat="44.4269937" lon="8.8086784"><ele>44.0</ele><time>2026-04-06T08:49:44.296Z</time></trkpt><trkpt lat="44.4270177" lon="8.8085959"><ele>44.0</ele><time>2026-04-06T08:49:52.296Z</time></trkpt><trkpt lat="44.4270808" lon="8.8085782"><ele>44.0</ele><time>2026-04-06T08:50:04.297Z</time></trkpt><trkpt lat="44.4271352" lon="8.8086322"><ele>44.0</ele><time>2026-04-06T08:50:12.296Z</time></trkpt><trkpt lat="44.4271992" lon="8.8086663"><ele>44.0</ele><time>2026-04-06T08:50:19.297Z</time></trkpt><trkpt lat="44.4272481" lon="8.8085891"><ele>44.0</ele><time>2026-04-06T08:51:41.296Z</time></trkpt><trkpt lat="44.4273176" lon="8.8085034"><ele>44.0</ele><time>2026-04-06T08:52:07.308Z</time></trkpt><trkpt lat="44.4273671" lon="8.8084295"><ele>48.0</ele><time>2026-04-06T08:52:12.296Z</time></trkpt><trkpt lat="44.427413" lon="8.8083676"><ele>52.0</ele><time>2026-04-06T08:52:20.296Z</time></trkpt><trkpt lat="44.4274631" lon="8.8083023"><ele>56.0</ele><time>2026-04-06T08:52:27.296Z</time></trkpt><trkpt lat="44.4275191" lon="8.8082593"><ele>60.0</ele><time>2026-04-06T08:52:35.296Z</time></trkpt><trkpt lat="44.4275741" lon="8.808214"><ele>64.0</ele><time>2026-04-06T08:52:44.296Z</time></trkpt><trkpt lat="44.4276374" lon="8.8081998"><ele>68.00000000000001</ele><time>2026-04-06T08:52:53.312Z</time></trkpt><trkpt lat="44.4277029" lon="8.8081943"><ele>72.0</ele><time>2026-04-06T08:52:57.297Z</time></trkpt><trkpt lat="44.4277716" lon="8.8081902"><ele>72.00000000000001</ele><time>2026-04-06T08:53:03.313Z</time></trkpt><trkpt lat="44.4278373" lon="8.8081815"><ele>72.0</ele><time>2026-04-06T08:53:10.296Z</time></trkpt><trkpt lat="44.4278971" lon="8.808148"><ele>72.0</ele><time>2026-04-06T08:53:18.296Z</time></trkpt><trkpt lat="44.4279558" lon="8.8080973"><ele>72.0</ele><time>2026-04-06T08:53:25.296Z</time></trkpt><trkpt lat="44.4280112" lon="8.8080442"><ele>72.0</ele><time>2026-04-06T08:53:32.299Z</time></trkpt><trkpt lat="44.428076" lon="8.807985"><ele>72.00000000000001</ele><time>2026-04-06T08:53:41.297Z</time></trkpt><trkpt lat="44.428119" lon="8.8079187"><ele>72.0</ele><time>2026-04-06T08:53:47.296Z</time></trkpt><trkpt lat="44.4281557" lon="8.8078455"><ele>70.85714285714286</ele><time>2026-04-06T08:53:54.296Z</time></trkpt><trkpt lat="44.4281905" lon="8.8077684"><ele>69.71428571428572</ele><time>2026-04-06T08:54:01.296Z</time></trkpt><trkpt lat="44.428222" lon="8.8076812"><ele>68.57142857142857</ele><time>2026-04-06T08:54:09.297Z</time></trkpt><trkpt lat="44.4282491" lon="8.8075941"><ele>67.42857142857143</ele><time>2026-04-06T08:54:15.296Z</time></trkpt><trkpt lat="44.4282524" lon="8.807506"><ele>66.28571428571428</ele><time>2026-04-06T08:54:19.296Z</time></trkpt><trkpt lat="44.4282353" lon="8.8074156"><ele>65.14285714285714</ele><time>2026-04-06T08:54:24.249Z</time></trkpt><trkpt lat="44.4282359" lon="8.8073124"><ele>64.0</ele><time>2026-04-06T08:54:30.296Z</time></trkpt><trkpt lat="44.4282557" lon="8.8072231"><ele>66.42857142857143</ele><time>2026-04-06T08:54:36.296Z</time></trkpt><trkpt lat="44.4282858" lon="8.8071364"><ele>68.85714285714285</ele><time>2026-04-06T08:54:41.213Z</time></trkpt><trkpt lat="44.4283127" lon="8.8070541"><ele>71.28571428571428</ele><time>2026-04-06T08:54:49.245Z</time></trkpt><trkpt lat="44.4283451" lon="8.8069709"><ele>73.71428571428571</ele><time>2026-04-06T08:54:58.299Z</time></trkpt><trkpt lat="44.4283888" lon="8.8069074"><ele>76.14285714285714</ele><time>2026-04-06T08:55:03.296Z</time></trkpt><trkpt lat="44.4284266" lon="8.8068332"><ele>78.57142857142857</ele><time>2026-04-06T08:55:07.297Z</time></trkpt><trkpt lat="44.4284671" lon="8.8067493"><ele>81.0</ele><time>2026-04-06T08:55:14.297Z</time></trkpt><trkpt lat="44.4285031" lon="8.8066679"><ele>99.0</ele><time>2026-04-06T08:55:21.301Z</time></trkpt><trkpt lat="44.4285644" lon="8.8065913"><ele>99.0</ele><time>2026-04-06T08:55:27.297Z</time></trkpt><trkpt lat="44.4286054" lon="8.8065217"><ele>99.0</ele><time>2026-04-06T08:55:30.297Z</time></trkpt><trkpt lat="44.4286325" lon="8.8064078"><ele>99.0</ele><time>2026-04-06T08:55:38.311Z</time></trkpt><trkpt lat="44.4286142" lon="8.8063105"><ele>99.0</ele><time>2026-04-06T08:55:47.296Z</time></trkpt><trkpt lat="44.4286063" lon="8.8062155"><ele>99.0</ele><time>2026-04-06T08:55:54.297Z</time></trkpt></trkseg><trkseg><trkpt lat="44.4297743" lon="8.8033498"><ele>116.00000000000001</ele><time>2026-04-06T09:02:47.296Z</time></trkpt><trkpt lat="44.4298331" lon="8.803302"><ele>116.0</ele><time>2026-04-06T09:02:56.297Z</time></trkpt><trkpt lat="44.4299007" lon="8.8032692"><ele>116.00000000000001</ele><time>2026-04-06T09:03:32.298Z</time></trkpt><trkpt lat="44.4299699" lon="8.8032723"><ele>116.00000000000001</ele><time>2026-04-06T09:03:36.296Z</time></trkpt><trkpt lat="44.4300396" lon="8.8032788"><ele>116.0</ele><time>2026-04-06T09:03:41.296Z</time></trkpt><trkpt lat="44.4301053" lon="8.8032705"><ele>116.00000000000001</ele><time>2026-04-06T09:03:46.296Z</time></trkpt><trkpt lat="44.4301674" lon="8.8032438"><ele>116.00000000000001</ele><time>2026-04-06T09:03:51.167Z</time></trkpt><trkpt lat="44.4302401" lon="8.8032127"><ele>115.99999999999999</ele><time>2026-04-06T09:03:57.147Z</time></trkpt><trkpt lat="44.4303153" lon="8.8031869"><ele>116.0</ele><time>2026-04-06T09:04:03.178Z</time></trkpt><trkpt lat="44.4303819" lon="8.8031643"><ele>116.0</ele><time>2026-04-06T09:04:08.191Z</time></trkpt><trkpt lat="44.430452" lon="8.8031194"><ele>116.0</ele><time>2026-04-06T09:04:14.336Z</time></trkpt><trkpt lat="44.4305186" lon="8.8030722"><ele>115.99999999999999</ele><time>2026-04-06T09:04:20.297Z</time></trkpt><trkpt lat="44.4305846" lon="8.8030261"><ele>116.0</ele><time>2026-04-06T09:04:25.309Z</time></trkpt><trkpt lat="44.4306563" lon="8.8029736"><ele>117.00000000000001</ele><time>2026-04-06T09:04:30.296Z</time></trkpt><trkpt lat="44.4307126" lon="8.8029312"><ele>118.0</ele><time>2026-04-06T09:04:35.296Z</time></trkpt><trkpt lat="44.4307671" lon="8.8028827"><ele>119.00000000000001</ele><time>2026-04-06T09:04:40.296Z</time></trkpt><trkpt lat="44.4308259" lon="8.8028417"><ele>120.00000000000001</ele><time>2026-04-06T09:04:46.296Z</time></trkpt><trkpt lat="44.4308816" lon="8.8027914"><ele>121.0</ele><time>2026-04-06T09:04:52.296Z</time></trkpt><trkpt lat="44.4309545" lon="8.8027794"><ele>122.00000000000001</ele><time>2026-04-06T09:04:58.296Z</time></trkpt><trkpt lat="44.4310246" lon="8.8027811"><ele>123.00000000000001</ele><time>2026-04-06T09:05:03.31Z</time></trkpt><trkpt lat="44.4310901" lon="8.8027851"><ele>123.00000000000001</ele><time>2026-04-06T09:05:09.296Z</time></trkpt><trkpt lat="44.4311566" lon="8.8027848"><ele>123.0</ele><time>2026-04-06T09:05:16.301Z</time></trkpt><trkpt lat="44.4312254" lon="8.8027741"><ele>123.00000000000001</ele><time>2026-04-06T09:05:21.296Z</time></trkpt><trkpt lat="44.4312935" lon="8.8027877"><ele>123.00000000000001</ele><time>2026-04-06T09:05:26.267Z</time></trkpt><trkpt lat="44.4313616" lon="8.8028091"><ele>123.0</ele><time>2026-04-06T09:05:31.234Z</time></trkpt><trkpt lat="44.4314249" lon="8.8028389"><ele>123.00000000000001</ele><time>2026-04-06T09:05:39.332Z</time></trkpt><trkpt lat="44.4314898" lon="8.8028645"><ele>123.00000000000001</ele><time>2026-04-06T09:05:42.296Z</time></trkpt><trkpt lat="44.4315462" lon="8.8029037"><ele>123.85714285714288</ele><time>2026-04-06T09:05:49.21Z</time></trkpt><trkpt lat="44.4316107" lon="8.8029485"><ele>124.71428571428572</ele><time>2026-04-06T09:05:55.296Z</time></trkpt><trkpt lat="44.4316665" lon="8.8029927"><ele>125.57142857142857</ele><time>2026-04-06T09:05:59.296Z</time></trkpt><trkpt lat="44.4317303" lon="8.8030039"><ele>126.42857142857143</ele><time>2026-04-06T09:06:06.296Z</time></trkpt><trkpt lat="44.4317993" lon="8.8030208"><ele>127.28571428571428</ele><time>2026-04-06T09:06:15.297Z</time></trkpt><trkpt lat="44.431864" lon="8.8030441"><ele>128.14285714285714</ele><time>2026-04-06T09:06:20.392Z</time></trkpt><trkpt lat="44.4317912" lon="8.8030294"><ele>129.0</ele><time>2026-04-06T09:06:37.297Z</time></trkpt><trkpt lat="44.4318656" lon="8.803079"><ele>128.99999999999997</ele><time>2026-04-06T09:06:59.184Z</time></trkpt><trkpt lat="44.4319369" lon="8.8030683"><ele>129.0</ele><time>2026-04-06T09:07:04.197Z</time></trkpt><trkpt lat="44.4319848" lon="8.803006"><ele>129.0</ele><time>2026-04-06T09:07:09.893Z</time></trkpt><trkpt lat="44.4320448" lon="8.8029575"><ele>129.0</ele><time>2026-04-06T09:07:15.267Z</time></trkpt><trkpt lat="44.4321112" lon="8.8029853"><ele>129.0</ele><time>2026-04-06T09:07:20.296Z</time></trkpt><trkpt lat="44.432167" lon="8.8030431"><ele>128.99999999999997</ele><time>2026-04-06T09:07:25.296Z</time></trkpt><trkpt lat="44.4322222" lon="8.803101"><ele>129.0</ele><time>2026-04-06T09:07:30.296Z</time></trkpt><trkpt lat="44.4322908" lon="8.8031318"><ele>130.99999999999997</ele><time>2026-04-06T09:07:36.296Z</time></trkpt><trkpt lat="44.4323643" lon="8.8031589"><ele>133.0</ele><time>2026-04-06T09:07:43.297Z</time></trkpt><trkpt lat="44.4324293" lon="8.8032115"><ele>135.0</ele><time>2026-04-06T09:07:49.296Z</time></trkpt><trkpt lat="44.432491" lon="8.8032306"><ele>137.0</ele><time>2026-04-06T09:07:54.297Z</time></trkpt><trkpt lat="44.4325579" lon="8.8032737"><ele>139.0</ele><time>2026-04-06T09:08:01.296Z</time></trkpt><trkpt lat="44.4326019" lon="8.8033447"><ele>140.99999999999997</ele><time>2026-04-06T09:08:07.296Z</time></trkpt><trkpt lat="44.4326302" lon="8.8034264"><ele>143.0</ele><time>2026-04-06T09:08:14.296Z</time></trkpt><trkpt lat="44.4326509" lon="8.8035193"><ele>142.99999999999997</ele><time>2026-04-06T09:08:22.297Z</time></trkpt><trkpt lat="44.432648" lon="8.80362"><ele>143.0</ele><time>2026-04-06T09:08:27.296Z</time></trkpt><trkpt lat="44.4326604" lon="8.8037188"><ele>143.0</ele><time>2026-04-06T09:08:33.297Z</time></trkpt><trkpt lat="44.4326817" lon="8.8038169"><ele>143.0</ele><time>2026-04-06T09:08:38.296Z</time></trkpt><trkpt lat="44.4326872" lon="8.8039258"><ele>143.0</ele><time>2026-04-06T09:08:43.296Z</time></trkpt><trkpt lat="44.4327123" lon="8.8040086"><ele>142.99999999999997</ele><time>2026-04-06T09:08:48.296Z</time></trkpt><trkpt lat="44.4327478" lon="8.8040851"><ele>143.0</ele><time>2026-04-06T09:08:53.296Z</time></trkpt><trkpt lat="44.4328023" lon="8.804147"><ele>142.99999999999997</ele><time>2026-04-06T09:09:01.296Z</time></trkpt><trkpt lat="44.432868" lon="8.8041985"><ele>143.0</ele><time>2026-04-06T09:09:08.296Z</time></trkpt><trkpt lat="44.4329355" lon="8.8042164"><ele>143.0</ele><time>2026-04-06T09:09:15.296Z</time></trkpt><trkpt lat="44.4330003" lon="8.8041912"><ele>143.0</ele><time>2026-04-06T09:09:20.296Z</time></trkpt><trkpt lat="44.4330552" lon="8.8041398"><ele>143.0</ele><time>2026-04-06T09:09:25.296Z</time></trkpt><trkpt lat="44.4330994" lon="8.8040698"><ele>142.99999999999997</ele><time>2026-04-06T09:09:30.287Z</time></trkpt><trkpt lat="44.433152" lon="8.8039942"><ele>143.0</ele><time>2026-04-06T09:09:37.296Z</time></trkpt><trkpt lat="44.4332085" lon="8.8039239"><ele>145.28571428571428</ele><time>2026-04-06T09:09:44.296Z</time></trkpt><trkpt lat="44.4332264" lon="8.8038316"><ele>147.57142857142856</ele><time>2026-04-06T09:09:51.296Z</time></trkpt><trkpt lat="44.4332924" lon="8.8038401"><ele>149.85714285714283</ele><time>2026-04-06T09:09:59.296Z</time></trkpt><trkpt lat="44.4333561" lon="8.8038067"><ele>152.14285714285714</ele><time>2026-04-06T09:10:05.195Z</time></trkpt><trkpt lat="44.433409" lon="8.8037481"><ele>154.42857142857144</ele><time>2026-04-06T09:10:19.306Z</time></trkpt><trkpt lat="44.4334661" lon="8.8037051"><ele>156.7142857142857</ele><time>2026-04-06T09:10:29.233Z</time></trkpt><trkpt lat="44.4335238" lon="8.8036593"><ele>159.0</ele><time>2026-04-06T09:10:36.297Z</time></trkpt><trkpt lat="44.433578" lon="8.8036072"><ele>159.0</ele><time>2026-04-06T09:10:42.295Z</time></trkpt><trkpt lat="44.4336449" lon="8.8035784"><ele>159.0</ele><time>2026-04-06T09:10:49.295Z</time></trkpt><trkpt lat="44.433692" lon="8.8035126"><ele>159.0</ele><time>2026-04-06T09:10:55.295Z</time></trkpt><trkpt lat="44.433752" lon="8.8034806"><ele>159.0</ele><time>2026-04-06T09:11:07.295Z</time></trkpt><trkpt lat="44.433818" lon="8.8034691"><ele>159.0</ele><time>2026-04-06T09:11:16.295Z</time></trkpt><trkpt lat="44.433885" lon="8.8034496"><ele>159.0</ele><time>2026-04-06T09:11:24.148Z</time></trkpt><trkpt lat="44.4339686" lon="8.8034117"><ele>159.0</ele><time>2026-04-06T09:11:48.295Z</time></trkpt><trkpt lat="44.4340219" lon="8.8033487"><ele>160.42857142857142</ele><time>2026-04-06T09:11:59.295Z</time></trkpt><trkpt lat="44.4340886" lon="8.8032976"><ele>161.85714285714286</ele><time>2026-04-06T09:12:05.295Z</time></trkpt><trkpt lat="44.4341513" lon="8.803259"><ele>163.28571428571428</ele><time>2026-04-06T09:12:11.295Z</time></trkpt><trkpt lat="44.4342129" lon="8.8032213"><ele>164.71428571428572</ele><time>2026-04-06T09:12:19.23Z</time></trkpt><trkpt lat="44.4342765" lon="8.8032114"><ele>166.14285714285714</ele><time>2026-04-06T09:12:27.155Z</time></trkpt><trkpt lat="44.4343557" lon="8.8032179"><ele>167.57142857142858</ele><time>2026-04-06T09:12:37.296Z</time></trkpt><trkpt lat="44.4344204" lon="8.8032268"><ele>169.0</ele><time>2026-04-06T09:12:47.295Z</time></trkpt><trkpt lat="44.4344836" lon="8.8032332"><ele>169.0</ele><time>2026-04-06T09:12:55.294Z</time></trkpt><trkpt lat="44.4345463" lon="8.8032179"><ele>169.0</ele><time>2026-04-06T09:13:03.296Z</time></trkpt><trkpt lat="44.4346168" lon="8.8032207"><ele>169.0</ele><time>2026-04-06T09:13:12.295Z</time></trkpt><trkpt lat="44.4346803" lon="8.8031784"><ele>169.0</ele><time>2026-04-06T09:13:20.295Z</time></trkpt><trkpt lat="44.4347453" lon="8.8031305"><ele>169.0</ele><time>2026-04-06T09:13:33.295Z</time></trkpt><trkpt lat="44.434802" lon="8.8030866"><ele>169.0</ele><time>2026-04-06T09:13:42.296Z</time></trkpt><trkpt lat="44.4348725" lon="8.8030714"><ele>169.0</ele><time>2026-04-06T09:13:51.295Z</time></trkpt><trkpt lat="44.4349367" lon="8.8030697"><ele>171.42857142857144</ele><time>2026-04-06T09:13:59.274Z</time></trkpt><trkpt lat="44.4350032" lon="8.8030661"><ele>173.85714285714286</ele><time>2026-04-06T09:14:06.296Z</time></trkpt><trkpt lat="44.4350694" lon="8.8030437"><ele>176.28571428571428</ele><time>2026-04-06T09:14:14.296Z</time></trkpt><trkpt lat="44.4351281" lon="8.8030103"><ele>178.71428571428572</ele><time>2026-04-06T09:14:23.295Z</time></trkpt><trkpt lat="44.4351751" lon="8.8029392"><ele>181.14285714285714</ele><time>2026-04-06T09:14:35.295Z</time></trkpt><trkpt lat="44.4352395" lon="8.8028842"><ele>183.57142857142858</ele><time>2026-04-06T09:14:42.295Z</time></trkpt><trkpt lat="44.4352952" lon="8.8028419"><ele>186.0</ele><time>2026-04-06T09:14:48.296Z</time></trkpt><trkpt lat="44.4353476" lon="8.8027768"><ele>186.00000000000003</ele><time>2026-04-06T09:14:52.295Z</time></trkpt><trkpt lat="44.4354191" lon="8.8027712"><ele>186.0</ele><time>2026-04-06T09:14:59.296Z</time></trkpt><trkpt lat="44.4354817" lon="8.8027889"><ele>186.0</ele><time>2026-04-06T09:15:11.23Z</time></trkpt><trkpt lat="44.4355537" lon="8.802809"><ele>186.0</ele><time>2026-04-06T09:15:22.295Z</time></trkpt><trkpt lat="44.4356244" lon="8.8028067"><ele>186.0</ele><time>2026-04-06T09:15:37.295Z</time></trkpt><trkpt lat="44.435688" lon="8.8027949"><ele>186.00000000000003</ele><time>2026-04-06T09:15:49.295Z</time></trkpt><trkpt lat="44.4357694" lon="8.8027617"><ele>186.0</ele><time>2026-04-06T09:16:05.295Z</time></trkpt><trkpt lat="44.435821" lon="8.8027005"><ele>189.16666666666666</ele><time>2026-04-06T09:16:12.296Z</time></trkpt><trkpt lat="44.435864" lon="8.802628"><ele>192.33333333333331</ele><time>2026-04-06T09:16:37.296Z</time></trkpt><trkpt lat="44.4359251" lon="8.8025623"><ele>195.5</ele><time>2026-04-06T09:16:44.295Z</time></trkpt><trkpt lat="44.4359578" lon="8.8024787"><ele>198.66666666666666</ele><time>2026-04-06T09:17:27.295Z</time></trkpt><trkpt lat="44.4359798" lon="8.8023865"><ele>201.83333333333331</ele><time>2026-04-06T09:17:37.295Z</time></trkpt><trkpt lat="44.4360328" lon="8.8023322"><ele>205.0</ele><time>2026-04-06T09:17:45.298Z</time></trkpt><trkpt lat="44.4361373" lon="8.8022615"><ele>205.0</ele><time>2026-04-06T09:18:25.296Z</time></trkpt><trkpt lat="44.4362036" lon="8.802223"><ele>205.0</ele><time>2026-04-06T09:18:31.303Z</time></trkpt><trkpt lat="44.4362772" lon="8.802211"><ele>205.0</ele><time>2026-04-06T09:18:38.296Z</time></trkpt><trkpt lat="44.4363422" lon="8.8021741"><ele>205.0</ele><time>2026-04-06T09:18:46.3Z</time></trkpt><trkpt lat="44.4364052" lon="8.8021383"><ele>205.0</ele><time>2026-04-06T09:18:53.295Z</time></trkpt><trkpt lat="44.4364695" lon="8.8021018"><ele>205.0</ele><time>2026-04-06T09:19:02.295Z</time></trkpt><trkpt lat="44.4365395" lon="8.8021046"><ele>205.0</ele><time>2026-04-06T09:19:11.295Z</time></trkpt><trkpt lat="44.4366098" lon="8.802096"><ele>204.71428571428572</ele><time>2026-04-06T09:19:21.295Z</time></trkpt><trkpt lat="44.4366741" lon="8.8020669"><ele>204.42857142857142</ele><time>2026-04-06T09:19:30.295Z</time></trkpt><trkpt lat="44.436733" lon="8.8020056"><ele>204.14285714285714</ele><time>2026-04-06T09:19:39.295Z</time></trkpt><trkpt lat="44.4367947" lon="8.801964"><ele>203.85714285714286</ele><time>2026-04-06T09:19:47.295Z</time></trkpt><trkpt lat="44.4368539" lon="8.8019224"><ele>203.57142857142856</ele><time>2026-04-06T09:19:52.297Z</time></trkpt><trkpt lat="44.4369096" lon="8.8018728"><ele>203.28571428571428</ele><time>2026-04-06T09:19:58.295Z</time></trkpt><trkpt lat="44.4369686" lon="8.8018244"><ele>203.0</ele><time>2026-04-06T09:20:09.295Z</time></trkpt><trkpt lat="44.4370316" lon="8.8017763"><ele>205.42857142857142</ele><time>2026-04-06T09:20:16.295Z</time></trkpt><trkpt lat="44.4370774" lon="8.8017139"><ele>207.85714285714286</ele><time>2026-04-06T09:20:19.295Z</time></trkpt><trkpt lat="44.4371345" lon="8.8016659"><ele>210.28571428571428</ele><time>2026-04-06T09:20:31.276Z</time></trkpt><trkpt lat="44.4371976" lon="8.8016292"><ele>212.71428571428572</ele><time>2026-04-06T09:20:38.296Z</time></trkpt><trkpt lat="44.4372618" lon="8.8016052"><ele>215.14285714285714</ele><time>2026-04-06T09:20:43.296Z</time></trkpt><trkpt lat="44.4373295" lon="8.8015927"><ele>217.57142857142856</ele><time>2026-04-06T09:20:52.295Z</time></trkpt><trkpt lat="44.4373859" lon="8.8015454"><ele>220.0</ele><time>2026-04-06T09:20:58.296Z</time></trkpt><trkpt lat="44.4374469" lon="8.8015855"><ele>221.85714285714283</ele><time>2026-04-06T09:21:13.296Z</time></trkpt><trkpt lat="44.4375135" lon="8.8015765"><ele>223.71428571428572</ele><time>2026-04-06T09:21:32.295Z</time></trkpt><trkpt lat="44.437587" lon="8.8015722"><ele>225.57142857142856</ele><time>2026-04-06T09:21:46.296Z</time></trkpt><trkpt lat="44.4376592" lon="8.8015735"><ele>227.42857142857142</ele><time>2026-04-06T09:21:57.296Z</time></trkpt><trkpt lat="44.4377132" lon="8.8015278"><ele>229.28571428571428</ele><time>2026-04-06T09:22:07.296Z</time></trkpt><trkpt lat="44.4377323" lon="8.8014252"><ele>231.14285714285714</ele><time>2026-04-06T09:22:18.296Z</time></trkpt><trkpt lat="44.4377599" lon="8.8013416"><ele>233.0</ele><time>2026-04-06T09:22:23.296Z</time></trkpt><trkpt lat="44.437823" lon="8.8013157"><ele>233.0</ele><time>2026-04-06T09:22:34.295Z</time></trkpt><trkpt lat="44.4378924" lon="8.8013289"><ele>233.0</ele><time>2026-04-06T09:22:40.296Z</time></trkpt><trkpt lat="44.4379566" lon="8.8013356"><ele>233.0</ele><time>2026-04-06T09:22:49.296Z</time></trkpt><trkpt lat="44.4380198" lon="8.8013393"><ele>233.0</ele><time>2026-04-06T09:22:56.295Z</time></trkpt><trkpt lat="44.4380904" lon="8.8013559"><ele>233.0</ele><time>2026-04-06T09:23:02.295Z</time></trkpt><trkpt lat="44.4381505" lon="8.8013968"><ele>233.0</ele><time>2026-04-06T09:23:09.295Z</time></trkpt><trkpt lat="44.4382128" lon="8.8014428"><ele>233.0</ele><time>2026-04-06T09:23:16.295Z</time></trkpt><trkpt lat="44.4382633" lon="8.8014973"><ele>235.14285714285717</ele><time>2026-04-06T09:23:22.295Z</time></trkpt><trkpt lat="44.4383233" lon="8.8015462"><ele>237.28571428571428</ele><time>2026-04-06T09:23:29.297Z</time></trkpt><trkpt lat="44.4383905" lon="8.8015719"><ele>239.42857142857144</ele><time>2026-04-06T09:23:35.295Z</time></trkpt><trkpt lat="44.4384548" lon="8.8015901"><ele>241.57142857142858</ele><time>2026-04-06T09:23:40.309Z</time></trkpt><trkpt lat="44.438521" lon="8.801615"><ele>243.71428571428572</ele><time>2026-04-06T09:23:46.3Z</time></trkpt><trkpt lat="44.4386037" lon="8.8016466"><ele>245.85714285714286</ele><time>2026-04-06T09:23:53.295Z</time></trkpt><trkpt lat="44.4386774" lon="8.8016555"><ele>248.0</ele><time>2026-04-06T09:24:00.295Z</time></trkpt><trkpt lat="44.4387404" lon="8.8016522"><ele>247.71428571428572</ele><time>2026-04-06T09:24:14.295Z</time></trkpt><trkpt lat="44.4388143" lon="8.8016193"><ele>247.42857142857144</ele><time>2026-04-06T09:24:28.296Z</time></trkpt><trkpt lat="44.4388819" lon="8.8016238"><ele>247.14285714285717</ele><time>2026-04-06T09:24:52.296Z</time></trkpt><trkpt lat="44.4389531" lon="8.8016126"><ele>246.8571428571429</ele><time>2026-04-06T09:24:59.296Z</time></trkpt><trkpt lat="44.4390179" lon="8.8016441"><ele>246.57142857142858</ele><time>2026-04-06T09:25:06.236Z</time></trkpt><trkpt lat="44.4390817" lon="8.8016417"><ele>246.28571428571433</ele><time>2026-04-06T09:25:15.295Z</time></trkpt><trkpt lat="44.4391506" lon="8.8016469"><ele>246.00000000000003</ele><time>2026-04-06T09:25:21.295Z</time></trkpt><trkpt lat="44.4392159" lon="8.8016626"><ele>246.00000000000003</ele><time>2026-04-06T09:25:30.296Z</time></trkpt><trkpt lat="44.4392804" lon="8.8016926"><ele>246.0</ele><time>2026-04-06T09:25:42.296Z</time></trkpt><trkpt lat="44.4393344" lon="8.8017451"><ele>246.00000000000003</ele><time>2026-04-06T09:25:49.295Z</time></trkpt><trkpt lat="44.4393892" lon="8.8018219"><ele>246.00000000000003</ele><time>2026-04-06T09:25:57.295Z</time></trkpt><trkpt lat="44.4394383" lon="8.8019096"><ele>246.0</ele><time>2026-04-06T09:26:05.296Z</time></trkpt><trkpt lat="44.4394984" lon="8.8019484"><ele>246.00000000000003</ele><time>2026-04-06T09:26:12.295Z</time></trkpt><trkpt lat="44.4395757" lon="8.8019807"><ele>246.00000000000003</ele><time>2026-04-06T09:26:25.274Z</time></trkpt><trkpt lat="44.4396395" lon="8.8020217"><ele>262.0</ele><time>2026-04-06T09:26:30.295Z</time></trkpt><trkpt lat="44.4396996" lon="8.8020688"><ele>278.0</ele><time>2026-04-06T09:26:37.211Z</time></trkpt><trkpt lat="44.4410383" lon="8.8038653"><ele>280.57142857142856</ele><time>2026-04-06T09:30:53.296Z</time></trkpt><trkpt lat="44.4411001" lon="8.8038838"><ele>283.14285714285717</ele><time>2026-04-06T09:31:16.295Z</time></trkpt><trkpt lat="44.4411797" lon="8.8039131"><ele>285.7142857142857</ele><time>2026-04-06T09:31:47.296Z</time></trkpt><trkpt lat="44.4412358" lon="8.8039594"><ele>288.2857142857143</ele><time>2026-04-06T09:31:53.244Z</time></trkpt><trkpt lat="44.4412846" lon="8.8040295"><ele>290.85714285714283</ele><time>2026-04-06T09:31:58.295Z</time></trkpt><trkpt lat="44.4413406" lon="8.8040766"><ele>293.42857142857144</ele><time>2026-04-06T09:32:04.295Z</time></trkpt><trkpt lat="44.4414119" lon="8.8040899"><ele>296.0</ele><time>2026-04-06T09:32:12.295Z</time></trkpt><trkpt lat="44.4414792" lon="8.8040792"><ele>296.0</ele><time>2026-04-06T09:32:20.295Z</time></trkpt><trkpt lat="44.4415516" lon="8.804062"><ele>296.0</ele><time>2026-04-06T09:32:25.295Z</time></trkpt><trkpt lat="44.4416215" lon="8.8040697"><ele>296.0</ele><time>2026-04-06T09:32:32.295Z</time></trkpt><trkpt lat="44.4416871" lon="8.8041147"><ele>296.0</ele><time>2026-04-06T09:32:42.297Z</time></trkpt><trkpt lat="44.4417493" lon="8.8041531"><ele>296.0</ele><time>2026-04-06T09:32:47.295Z</time></trkpt><trkpt lat="44.4418145" lon="8.8041916"><ele>296.0</ele><time>2026-04-06T09:32:53.295Z</time></trkpt><trkpt lat="44.4418827" lon="8.8042122"><ele>296.0</ele><time>2026-04-06T09:33:02.295Z</time></trkpt><trkpt lat="44.4419514" lon="8.8042395"><ele>296.0</ele><time>2026-04-06T09:33:10.295Z</time></trkpt><trkpt lat="44.442015" lon="8.8042589"><ele>296.0</ele><time>2026-04-06T09:33:15.296Z</time></trkpt><trkpt lat="44.4420874" lon="8.8042857"><ele>296.0</ele><time>2026-04-06T09:33:20.295Z</time></trkpt><trkpt lat="44.4421467" lon="8.8043215"><ele>296.0</ele><time>2026-04-06T09:33:25.296Z</time></trkpt><trkpt lat="44.4421987" lon="8.804383"><ele>296.0</ele><time>2026-04-06T09:33:32.295Z</time></trkpt><trkpt lat="44.4422481" lon="8.8044471"><ele>296.0</ele><time>2026-04-06T09:33:38.295Z</time></trkpt><trkpt lat="44.4422899" lon="8.8045178"><ele>296.0</ele><time>2026-04-06T09:33:46.295Z</time></trkpt><trkpt lat="44.4423376" lon="8.8045919"><ele>299.7142857142857</ele><time>2026-04-06T09:33:52.295Z</time></trkpt><trkpt lat="44.442397" lon="8.8046483"><ele>303.42857142857144</ele><time>2026-04-06T09:34:02.296Z</time></trkpt><trkpt lat="44.4424633" lon="8.8046632"><ele>307.1428571428571</ele><time>2026-04-06T09:34:08.296Z</time></trkpt><trkpt lat="44.442525" lon="8.8046144"><ele>310.8571428571429</ele><time>2026-04-06T09:34:15.296Z</time></trkpt><trkpt lat="44.4425726" lon="8.8045532"><ele>314.57142857142856</ele><time>2026-04-06T09:34:21.296Z</time></trkpt><trkpt lat="44.4426409" lon="8.8045518"><ele>318.2857142857143</ele><time>2026-04-06T09:34:27.295Z</time></trkpt><trkpt lat="44.4427026" lon="8.8045105"><ele>322.0</ele><time>2026-04-06T09:34:37.296Z</time></trkpt><trkpt lat="44.4427788" lon="8.8045173"><ele>322.0</ele><time>2026-04-06T09:34:42.295Z</time></trkpt><trkpt lat="44.4428469" lon="8.8045287"><ele>322.0</ele><time>2026-04-06T09:34:48.296Z</time></trkpt><trkpt lat="44.4429099" lon="8.8045336"><ele>322.0</ele><time>2026-04-06T09:35:01.295Z</time></trkpt><trkpt lat="44.4429757" lon="8.8045377"><ele>322.0</ele><time>2026-04-06T09:36:39.225Z</time></trkpt><trkpt lat="44.4430301" lon="8.8044893"><ele>322.0</ele><time>2026-04-06T09:36:44.295Z</time></trkpt><trkpt lat="44.443092" lon="8.8044541"><ele>322.0</ele><time>2026-04-06T09:36:49.295Z</time></trkpt><trkpt lat="44.4431506" lon="8.8044085"><ele>322.0</ele><time>2026-04-06T09:36:54.295Z</time></trkpt><trkpt lat="44.4432292" lon="8.8043958"><ele>321.0</ele><time>2026-04-06T09:37:00.296Z</time></trkpt><trkpt lat="44.4432876" lon="8.8043073"><ele>320.0</ele><time>2026-04-06T09:37:08.295Z</time></trkpt><trkpt lat="44.4433601" lon="8.8042698"><ele>319.0</ele><time>2026-04-06T09:39:16.296Z</time></trkpt><trkpt lat="44.4434281" lon="8.8042387"><ele>318.0</ele><time>2026-04-06T09:39:22.296Z</time></trkpt><trkpt lat="44.4434793" lon="8.8041809"><ele>317.0</ele><time>2026-04-06T09:39:29.295Z</time></trkpt><trkpt lat="44.4435383" lon="8.8041404"><ele>316.0</ele><time>2026-04-06T09:39:37.296Z</time></trkpt><trkpt lat="44.4435877" lon="8.8040706"><ele>315.0</ele><time>2026-04-06T09:39:43.219Z</time></trkpt><trkpt lat="44.4436624" lon="8.8040199"><ele>315.0</ele><time>2026-04-06T09:39:51.295Z</time></trkpt><trkpt lat="44.4437315" lon="8.8039893"><ele>315.0</ele><time>2026-04-06T09:39:58.295Z</time></trkpt><trkpt lat="44.4437844" lon="8.8039137"><ele>315.0</ele><time>2026-04-06T09:40:05.295Z</time></trkpt><trkpt lat="44.4438228" lon="8.8038412"><ele>315.0</ele><time>2026-04-06T09:40:12.296Z</time></trkpt><trkpt lat="44.443864" lon="8.8037684"><ele>315.0</ele><time>2026-04-06T09:40:19.295Z</time></trkpt><trkpt lat="44.4439135" lon="8.8037082"><ele>315.0</ele><time>2026-04-06T09:40:26.284Z</time></trkpt><trkpt lat="44.4439653" lon="8.803638"><ele>315.0</ele><time>2026-04-06T09:40:33.295Z</time></trkpt><trkpt lat="44.4440036" lon="8.803561"><ele>315.7142857142857</ele><time>2026-04-06T09:40:40.295Z</time></trkpt><trkpt lat="44.4440672" lon="8.8035014"><ele>316.42857142857144</ele><time>2026-04-06T09:40:47.296Z</time></trkpt><trkpt lat="44.4441325" lon="8.8034773"><ele>317.1428571428571</ele><time>2026-04-06T09:40:52.295Z</time></trkpt><trkpt lat="44.4441937" lon="8.8034481"><ele>317.8571428571429</ele><time>2026-04-06T09:40:58.296Z</time></trkpt><trkpt lat="44.4442551" lon="8.8033915"><ele>318.57142857142856</ele><time>2026-04-06T09:41:04.296Z</time></trkpt><trkpt lat="44.4443172" lon="8.8033696"><ele>319.2857142857143</ele><time>2026-04-06T09:41:10.296Z</time></trkpt><trkpt lat="44.4443914" lon="8.8033595"><ele>320.0</ele><time>2026-04-06T09:41:16.295Z</time></trkpt><trkpt lat="44.4444555" lon="8.8033647"><ele>320.0</ele><time>2026-04-06T09:41:21.296Z</time></trkpt><trkpt lat="44.4445196" lon="8.8033612"><ele>320.0</ele><time>2026-04-06T09:41:27.301Z</time></trkpt><trkpt lat="44.4445889" lon="8.8033509"><ele>320.0</ele><time>2026-04-06T09:41:34.28Z</time></trkpt><trkpt lat="44.4446486" lon="8.8033096"><ele>320.0</ele><time>2026-04-06T09:41:41.295Z</time></trkpt><trkpt lat="44.4446902" lon="8.8032321"><ele>320.0</ele><time>2026-04-06T09:41:48.296Z</time></trkpt><trkpt lat="44.4447505" lon="8.8032925"><ele>320.0</ele><time>2026-04-06T09:41:59.296Z</time></trkpt><trkpt lat="44.4448118" lon="8.8032719"><ele>320.0</ele><time>2026-04-06T09:42:08.297Z</time></trkpt><trkpt lat="44.4448802" lon="8.8032678"><ele>324.0</ele><time>2026-04-06T09:42:19.295Z</time></trkpt><trkpt lat="44.4449509" lon="8.8032382"><ele>328.0</ele><time>2026-04-06T09:42:28.295Z</time></trkpt><trkpt lat="44.445018" lon="8.8032161"><ele>332.0</ele><time>2026-04-06T09:42:35.297Z</time></trkpt><trkpt lat="44.4450791" lon="8.8031611"><ele>336.0</ele><time>2026-04-06T09:42:41.295Z</time></trkpt><trkpt lat="44.4451291" lon="8.8030963"><ele>340.0</ele><time>2026-04-06T09:42:49.295Z</time></trkpt><trkpt lat="44.4451742" lon="8.8030198"><ele>344.0</ele><time>2026-04-06T09:42:54.295Z</time></trkpt><trkpt lat="44.4452068" lon="8.8029405"><ele>348.0</ele><time>2026-04-06T09:43:04.295Z</time></trkpt><trkpt lat="44.4452702" lon="8.802889"><ele>348.0</ele><time>2026-04-06T09:43:27.278Z</time></trkpt><trkpt lat="44.4453324" lon="8.8028395"><ele>348.0</ele><time>2026-04-06T09:43:35.283Z</time></trkpt><trkpt lat="44.4453801" lon="8.8027784"><ele>348.0</ele><time>2026-04-06T09:43:41.295Z</time></trkpt><trkpt lat="44.4454357" lon="8.802723"><ele>348.0</ele><time>2026-04-06T09:43:47.327Z</time></trkpt><trkpt lat="44.4454929" lon="8.8026742"><ele>348.0</ele><time>2026-04-06T09:43:53.295Z</time></trkpt><trkpt lat="44.4455451" lon="8.8026125"><ele>348.0</ele><time>2026-04-06T09:43:59.297Z</time></trkpt><trkpt lat="44.4455914" lon="8.8025393"><ele>348.0</ele><time>2026-04-06T09:44:06.296Z</time></trkpt><trkpt lat="44.4456195" lon="8.8024566"><ele>350.2857142857143</ele><time>2026-04-06T09:44:12.296Z</time></trkpt><trkpt lat="44.4456688" lon="8.8023759"><ele>352.57142857142856</ele><time>2026-04-06T09:44:56.312Z</time></trkpt><trkpt lat="44.4457001" lon="8.8022935"><ele>354.8571428571429</ele><time>2026-04-06T09:45:03.295Z</time></trkpt><trkpt lat="44.4457129" lon="8.8021983"><ele>357.1428571428571</ele><time>2026-04-06T09:45:14.296Z</time></trkpt><trkpt lat="44.4457441" lon="8.8020996"><ele>359.42857142857144</ele><time>2026-04-06T09:45:21.295Z</time></trkpt><trkpt lat="44.4457887" lon="8.8020296"><ele>361.7142857142857</ele><time>2026-04-06T09:45:28.296Z</time></trkpt><trkpt lat="44.4458277" lon="8.8019428"><ele>364.0</ele><time>2026-04-06T09:45:34.296Z</time></trkpt><trkpt lat="44.4458746" lon="8.8018776"><ele>363.42857142857144</ele><time>2026-04-06T09:45:42.294Z</time></trkpt><trkpt lat="44.4459216" lon="8.8018027"><ele>362.8571428571429</ele><time>2026-04-06T09:45:51.294Z</time></trkpt><trkpt lat="44.4459847" lon="8.8018022"><ele>362.2857142857143</ele><time>2026-04-06T09:46:00.314Z</time></trkpt><trkpt lat="44.4460533" lon="8.801785"><ele>361.7142857142857</ele><time>2026-04-06T09:46:08.294Z</time></trkpt><trkpt lat="44.4461239" lon="8.8017653"><ele>361.14285714285717</ele><time>2026-04-06T09:46:15.23Z</time></trkpt><trkpt lat="44.4461948" lon="8.8017596"><ele>360.57142857142856</ele><time>2026-04-06T09:46:22.295Z</time></trkpt><trkpt lat="44.4462627" lon="8.801786"><ele>360.0</ele><time>2026-04-06T09:46:30.294Z</time></trkpt><trkpt lat="44.4463313" lon="8.8017832"><ele>360.0</ele><time>2026-04-06T09:46:41.294Z</time></trkpt><trkpt lat="44.4464008" lon="8.8017915"><ele>360.0</ele><time>2026-04-06T09:46:47.296Z</time></trkpt><trkpt lat="44.4464647" lon="8.8018045"><ele>360.0</ele><time>2026-04-06T09:46:56.19Z</time></trkpt><trkpt lat="44.4465326" lon="8.8018037"><ele>360.0</ele><time>2026-04-06T09:47:01.294Z</time></trkpt><trkpt lat="44.4465984" lon="8.8018372"><ele>360.0</ele><time>2026-04-06T09:47:07.294Z</time></trkpt><trkpt lat="44.4466635" lon="8.8018697"><ele>360.0</ele><time>2026-04-06T09:47:15.295Z</time></trkpt><trkpt lat="44.4467281" lon="8.8018794"><ele>360.0</ele><time>2026-04-06T09:47:20.294Z</time></trkpt><trkpt lat="44.4467941" lon="8.8018732"><ele>366.1428571428571</ele><time>2026-04-06T09:47:25.295Z</time></trkpt><trkpt lat="44.4468595" lon="8.8018819"><ele>372.28571428571433</ele><time>2026-04-06T09:47:31.271Z</time></trkpt><trkpt lat="44.4469263" lon="8.8018944"><ele>378.42857142857144</ele><time>2026-04-06T09:47:37.294Z</time></trkpt><trkpt lat="44.4469937" lon="8.8019143"><ele>384.57142857142856</ele><time>2026-04-06T09:47:43.295Z</time></trkpt><trkpt lat="44.4470591" lon="8.8019323"><ele>390.71428571428567</ele><time>2026-04-06T09:47:48.294Z</time></trkpt><trkpt lat="44.4471223" lon="8.8019593"><ele>396.8571428571429</ele><time>2026-04-06T09:47:54.295Z</time></trkpt><trkpt lat="44.4471882" lon="8.8019426"><ele>403.0</ele><time>2026-04-06T09:48:00.294Z</time></trkpt><trkpt lat="44.4472521" lon="8.8019372"><ele>403.0</ele><time>2026-04-06T09:48:06.294Z</time></trkpt><trkpt lat="44.4473293" lon="8.8019347"><ele>403.0</ele><time>2026-04-06T09:48:14.294Z</time></trkpt><trkpt lat="44.4474083" lon="8.8019435"><ele>403.0</ele><time>2026-04-06T09:48:19.294Z</time></trkpt><trkpt lat="44.4474796" lon="8.8019709"><ele>403.0</ele><time>2026-04-06T09:48:24.295Z</time></trkpt><trkpt lat="44.4475399" lon="8.8020191"><ele>403.0</ele><time>2026-04-06T09:48:31.294Z</time></trkpt><trkpt lat="44.4476081" lon="8.8020104"><ele>403.0</ele><time>2026-04-06T09:48:39.294Z</time></trkpt><trkpt lat="44.4476627" lon="8.8019625"><ele>403.0</ele><time>2026-04-06T09:48:48.294Z</time></trkpt><trkpt lat="44.4477102" lon="8.8019009"><ele>403.0</ele><time>2026-04-06T09:48:54.294Z</time></trkpt><trkpt lat="44.4477581" lon="8.8019606"><ele>403.0</ele><time>2026-04-06T09:49:02.294Z</time></trkpt><trkpt lat="44.4478077" lon="8.8020231"><ele>403.0</ele><time>2026-04-06T09:49:10.214Z</time></trkpt><trkpt lat="44.4478619" lon="8.8020747"><ele>403.0</ele><time>2026-04-06T09:49:18.294Z</time></trkpt><trkpt lat="44.4479251" lon="8.8021193"><ele>403.0</ele><time>2026-04-06T09:49:23.294Z</time></trkpt><trkpt lat="44.4479919" lon="8.8021037"><ele>403.0</ele><time>2026-04-06T09:49:30.278Z</time></trkpt><trkpt lat="44.448052" lon="8.8020676"><ele>403.0</ele><time>2026-04-06T09:49:41.294Z</time></trkpt><trkpt lat="44.4481088" lon="8.802027"><ele>404.5714285714286</ele><time>2026-04-06T09:49:48.295Z</time></trkpt><trkpt lat="44.4481656" lon="8.8019816"><ele>406.1428571428571</ele><time>2026-04-06T09:49:57.295Z</time></trkpt><trkpt lat="44.4482166" lon="8.8019294"><ele>407.7142857142857</ele><time>2026-04-06T09:50:07.273Z</time></trkpt><trkpt lat="44.4482518" lon="8.8018556"><ele>409.28571428571433</ele><time>2026-04-06T09:50:17.299Z</time></trkpt><trkpt lat="44.4483163" lon="8.8018804"><ele>410.8571428571429</ele><time>2026-04-06T09:50:25.294Z</time></trkpt><trkpt lat="44.4483826" lon="8.8019096"><ele>412.42857142857144</ele><time>2026-04-06T09:50:34.295Z</time></trkpt><trkpt lat="44.4484481" lon="8.8019155"><ele>414.0</ele><time>2026-04-06T09:50:49.294Z</time></trkpt><trkpt lat="44.4485135" lon="8.8019158"><ele>414.00000000000006</ele><time>2026-04-06T09:51:00.294Z</time></trkpt><trkpt lat="44.4485705" lon="8.8018631"><ele>414.0</ele><time>2026-04-06T09:52:14.295Z</time></trkpt><trkpt lat="44.4486371" lon="8.801851"><ele>414.0</ele><time>2026-04-06T09:52:50.295Z</time></trkpt><trkpt lat="44.4486995" lon="8.8018081"><ele>414.0</ele><time>2026-04-06T09:53:01.294Z</time></trkpt><trkpt lat="44.4487665" lon="8.8017929"><ele>414.0</ele><time>2026-04-06T09:53:10.294Z</time></trkpt><trkpt lat="44.4488282" lon="8.8017509"><ele>414.00000000000006</ele><time>2026-04-06T09:53:18.294Z</time></trkpt><trkpt lat="44.4488689" lon="8.8016805"><ele>414.0</ele><time>2026-04-06T09:53:27.295Z</time></trkpt><trkpt lat="44.4489288" lon="8.801645"><ele>413.42857142857144</ele><time>2026-04-06T09:53:37.294Z</time></trkpt><trkpt lat="44.4489765" lon="8.8015774"><ele>412.8571428571429</ele><time>2026-04-06T09:53:46.294Z</time></trkpt><trkpt lat="44.4490389" lon="8.8015347"><ele>412.28571428571433</ele><time>2026-04-06T09:53:54.294Z</time></trkpt><trkpt lat="44.4491082" lon="8.801538"><ele>411.7142857142857</ele><time>2026-04-06T09:54:03.294Z</time></trkpt><trkpt lat="44.4491797" lon="8.8015314"><ele>411.1428571428571</ele><time>2026-04-06T09:54:12.252Z</time></trkpt><trkpt lat="44.4492332" lon="8.8014807"><ele>410.5714285714286</ele><time>2026-04-06T09:54:19.295Z</time></trkpt><trkpt lat="44.449294" lon="8.8014524"><ele>410.0</ele><time>2026-04-06T09:54:27.213Z</time></trkpt><trkpt lat="44.4493616" lon="8.8014501"><ele>410.0</ele><time>2026-04-06T09:54:37.294Z</time></trkpt><trkpt lat="44.4494234" lon="8.8014275"><ele>410.0</ele><time>2026-04-06T09:54:48.294Z</time></trkpt><trkpt lat="44.4494914" lon="8.8014313"><ele>410.0</ele><time>2026-04-06T09:55:01.294Z</time></trkpt><trkpt lat="44.4496759" lon="8.8012935"><ele>410.0</ele><time>2026-04-06T09:57:09.294Z</time></trkpt><trkpt lat="44.4497011" lon="8.8013806"><ele>410.0</ele><time>2026-04-06T09:57:47.294Z</time></trkpt><trkpt lat="44.4497279" lon="8.8014659"><ele>412.2857142857143</ele><time>2026-04-06T09:57:55.294Z</time></trkpt><trkpt lat="44.4497746" lon="8.8015346"><ele>414.57142857142856</ele><time>2026-04-06T09:58:02.295Z</time></trkpt><trkpt lat="44.4498392" lon="8.8014767"><ele>416.85714285714283</ele><time>2026-04-06T09:58:17.294Z</time></trkpt><trkpt lat="44.4499114" lon="8.8014912"><ele>419.1428571428571</ele><time>2026-04-06T09:58:27.294Z</time></trkpt><trkpt lat="44.4499748" lon="8.8015423"><ele>421.42857142857144</ele><time>2026-04-06T09:58:37.295Z</time></trkpt><trkpt lat="44.4500412" lon="8.8015752"><ele>423.71428571428567</ele><time>2026-04-06T09:58:45.295Z</time></trkpt><trkpt lat="44.4501008" lon="8.8015201"><ele>426.0</ele><time>2026-04-06T10:00:29.295Z</time></trkpt><trkpt lat="44.4501547" lon="8.8014561"><ele>426.0</ele><time>2026-04-06T10:00:35.294Z</time></trkpt><trkpt lat="44.4501741" lon="8.801361"><ele>426.0</ele><time>2026-04-06T10:00:50.294Z</time></trkpt><trkpt lat="44.4502309" lon="8.8013075"><ele>426.0</ele><time>2026-04-06T10:00:58.294Z</time></trkpt><trkpt lat="44.4502729" lon="8.8011893"><ele>426.0</ele><time>2026-04-06T10:01:18.294Z</time></trkpt><trkpt lat="44.4503217" lon="8.8011266"><ele>426.0</ele><time>2026-04-06T10:01:29.294Z</time></trkpt><trkpt lat="44.450347" lon="8.8010423"><ele>426.0</ele><time>2026-04-06T10:01:42.294Z</time></trkpt><trkpt lat="44.4503839" lon="8.8009161"><ele>425.71428571428567</ele><time>2026-04-06T10:02:01.294Z</time></trkpt><trkpt lat="44.4504129" lon="8.800837"><ele>425.42857142857144</ele><time>2026-04-06T10:02:14.294Z</time></trkpt><trkpt lat="44.4504717" lon="8.8007762"><ele>425.1428571428571</ele><time>2026-04-06T10:02:34.303Z</time></trkpt><trkpt lat="44.4505146" lon="8.8007043"><ele>424.85714285714283</ele><time>2026-04-06T10:02:40.203Z</time></trkpt><trkpt lat="44.4505767" lon="8.80066"><ele>424.57142857142856</ele><time>2026-04-06T10:02:46.295Z</time></trkpt><trkpt lat="44.450632" lon="8.8005892"><ele>424.2857142857143</ele><time>2026-04-06T10:02:54.294Z</time></trkpt><trkpt lat="44.4506886" lon="8.8005315"><ele>424.0</ele><time>2026-04-06T10:03:00.294Z</time></trkpt><trkpt lat="44.4507462" lon="8.800477"><ele>426.0</ele><time>2026-04-06T10:03:07.295Z</time></trkpt><trkpt lat="44.450808" lon="8.8004331"><ele>428.0</ele><time>2026-04-06T10:03:14.048Z</time></trkpt><trkpt lat="44.4508638" lon="8.8003784"><ele>430.0</ele><time>2026-04-06T10:03:22.295Z</time></trkpt><trkpt lat="44.4509264" lon="8.800331"><ele>432.0</ele><time>2026-04-06T10:03:29.263Z</time></trkpt><trkpt lat="44.4509831" lon="8.8002687"><ele>434.0</ele><time>2026-04-06T10:03:36.294Z</time></trkpt><trkpt lat="44.4510523" lon="8.8002604"><ele>436.0</ele><time>2026-04-06T10:03:43.306Z</time></trkpt><trkpt lat="44.4511093" lon="8.8002227"><ele>438.0</ele><time>2026-04-06T10:03:49.295Z</time></trkpt><trkpt lat="44.451172" lon="8.8001931"><ele>437.14285714285717</ele><time>2026-04-06T10:03:55.294Z</time></trkpt><trkpt lat="44.4512354" lon="8.800162"><ele>436.2857142857143</ele><time>2026-04-06T10:04:04.295Z</time></trkpt><trkpt lat="44.4512787" lon="8.8000888"><ele>435.42857142857144</ele><time>2026-04-06T10:04:13.319Z</time></trkpt><trkpt lat="44.4513182" lon="8.8000092"><ele>434.57142857142856</ele><time>2026-04-06T10:04:21.294Z</time></trkpt><trkpt lat="44.4513486" lon="8.7999149"><ele>433.71428571428567</ele><time>2026-04-06T10:04:30.294Z</time></trkpt><trkpt lat="44.4513742" lon="8.7998275"><ele>432.85714285714283</ele><time>2026-04-06T10:04:43.294Z</time></trkpt><trkpt lat="44.4514096" lon="8.7997525"><ele>432.0</ele><time>2026-04-06T10:04:53.294Z</time></trkpt><trkpt lat="44.451442" lon="8.7996586"><ele>437.0</ele><time>2026-04-06T10:05:05.294Z</time></trkpt><trkpt lat="44.4514738" lon="8.7995045"><ele>442.00000000000006</ele><time>2026-04-06T10:05:33.294Z</time></trkpt><trkpt lat="44.4515656" lon="8.7994309"><ele>447.00000000000006</ele><time>2026-04-06T10:07:39.294Z</time></trkpt><trkpt lat="44.4516095" lon="8.7993602"><ele>452.0</ele><time>2026-04-06T10:07:51.295Z</time></trkpt><trkpt lat="44.451693" lon="8.7993176"><ele>457.0</ele><time>2026-04-06T10:08:11.294Z</time></trkpt><trkpt lat="44.4517639" lon="8.799278"><ele>457.8571428571429</ele><time>2026-04-06T10:08:34.294Z</time></trkpt><trkpt lat="44.4518144" lon="8.7992237"><ele>458.7142857142857</ele><time>2026-04-06T10:08:49.294Z</time></trkpt><trkpt lat="44.4518516" lon="8.7991436"><ele>459.57142857142856</ele><time>2026-04-06T10:09:08.294Z</time></trkpt><trkpt lat="44.4519089" lon="8.7990908"><ele>460.42857142857144</ele><time>2026-04-06T10:09:28.295Z</time></trkpt><trkpt lat="44.4519696" lon="8.7990504"><ele>461.2857142857142</ele><time>2026-04-06T10:09:43.295Z</time></trkpt><trkpt lat="44.4520326" lon="8.799032"><ele>462.1428571428571</ele><time>2026-04-06T10:10:01.294Z</time></trkpt><trkpt lat="44.4521167" lon="8.7990332"><ele>463.0</ele><time>2026-04-06T10:10:38.295Z</time></trkpt><trkpt lat="44.4521847" lon="8.7990254"><ele>466.57142857142856</ele><time>2026-04-06T10:10:55.294Z</time></trkpt><trkpt lat="44.4522533" lon="8.7990147"><ele>470.1428571428571</ele><time>2026-04-06T10:11:39.295Z</time></trkpt><trkpt lat="44.4523189" lon="8.7990093"><ele>473.71428571428567</ele><time>2026-04-06T10:11:52.294Z</time></trkpt><trkpt lat="44.4523817" lon="8.7990215"><ele>477.2857142857142</ele><time>2026-04-06T10:12:05.295Z</time></trkpt><trkpt lat="44.4524487" lon="8.7990328"><ele>480.85714285714283</ele><time>2026-04-06T10:12:23.294Z</time></trkpt><trkpt lat="44.452511" lon="8.7990006"><ele>484.42857142857133</ele><time>2026-04-06T10:12:37.294Z</time></trkpt><trkpt lat="44.4525763" lon="8.7989815"><ele>487.99999999999994</ele><time>2026-04-06T10:12:49.294Z</time></trkpt><trkpt lat="44.4526445" lon="8.7990016"><ele>487.99999999999994</ele><time>2026-04-06T10:13:10.294Z</time></trkpt><trkpt lat="44.4527041" lon="8.7989576"><ele>488.0</ele><time>2026-04-06T10:13:36.294Z</time></trkpt><trkpt lat="44.4527615" lon="8.7989089"><ele>487.99999999999994</ele><time>2026-04-06T10:14:08.294Z</time></trkpt><trkpt lat="44.4528246" lon="8.7988942"><ele>487.99999999999994</ele><time>2026-04-06T10:14:26.294Z</time></trkpt><trkpt lat="44.4528867" lon="8.7988662"><ele>488.0</ele><time>2026-04-06T10:14:35.294Z</time></trkpt><trkpt lat="44.4529526" lon="8.7988396"><ele>487.99999999999994</ele><time>2026-04-06T10:14:48.294Z</time></trkpt><trkpt lat="44.4530177" lon="8.7988563"><ele>487.99999999999994</ele><time>2026-04-06T10:15:01.295Z</time></trkpt><trkpt lat="44.453086" lon="8.7988706"><ele>491.1428571428571</ele><time>2026-04-06T10:15:09.295Z</time></trkpt><trkpt lat="44.4531484" lon="8.7988549"><ele>494.2857142857143</ele><time>2026-04-06T10:15:18.295Z</time></trkpt><trkpt lat="44.4532098" lon="8.7988285"><ele>497.42857142857144</ele><time>2026-04-06T10:15:28.294Z</time></trkpt><trkpt lat="44.4532775" lon="8.7988212"><ele>500.57142857142856</ele><time>2026-04-06T10:15:38.298Z</time></trkpt><trkpt lat="44.4533484" lon="8.7988029"><ele>503.7142857142858</ele><time>2026-04-06T10:15:49.295Z</time></trkpt><trkpt lat="44.4534163" lon="8.7987898"><ele>506.8571428571429</ele><time>2026-04-06T10:16:06.294Z</time></trkpt><trkpt lat="44.4534803" lon="8.7987763"><ele>510.0</ele><time>2026-04-06T10:16:17.294Z</time></trkpt><trkpt lat="44.4535489" lon="8.7987597"><ele>510.0</ele><time>2026-04-06T10:16:31.295Z</time></trkpt><trkpt lat="44.4536148" lon="8.798757"><ele>510.00000000000006</ele><time>2026-04-06T10:16:44.327Z</time></trkpt><trkpt lat="44.4536799" lon="8.798771"><ele>510.0</ele><time>2026-04-06T10:16:52.294Z</time></trkpt><trkpt lat="44.4537407" lon="8.798733"><ele>510.0</ele><time>2026-04-06T10:17:03.295Z</time></trkpt><trkpt lat="44.4538065" lon="8.7987034"><ele>510.00000000000006</ele><time>2026-04-06T10:17:11.294Z</time></trkpt><trkpt lat="44.4538735" lon="8.7986922"><ele>510.0</ele><time>2026-04-06T10:17:20.294Z</time></trkpt><trkpt lat="44.4539432" lon="8.7986837"><ele>510.0</ele><time>2026-04-06T10:17:29.294Z</time></trkpt><trkpt lat="44.4540141" lon="8.7986749"><ele>509.0</ele><time>2026-04-06T10:17:36.295Z</time></trkpt></trkseg><trkseg><trkpt lat="44.4565427" lon="8.7991526"><ele>578.9999999999999</ele><time>2026-04-06T10:27:01.294Z</time></trkpt><trkpt lat="44.4565214" lon="8.7990663"><ele>579.0</ele><time>2026-04-06T10:27:11.294Z</time></trkpt><trkpt lat="44.4564724" lon="8.7990037"><ele>579.0</ele><time>2026-04-06T10:27:22.294Z</time></trkpt><trkpt lat="44.4564225" lon="8.7989394"><ele>579.0</ele><time>2026-04-06T10:27:32.294Z</time></trkpt><trkpt lat="44.4563912" lon="8.7988619"><ele>579.0</ele><time>2026-04-06T10:27:43.295Z</time></trkpt><trkpt lat="44.4563626" lon="8.7987736"><ele>578.9999999999999</ele><time>2026-04-06T10:27:54.295Z</time></trkpt><trkpt lat="44.4562993" lon="8.7987016"><ele>579.0</ele><time>2026-04-06T10:28:36.295Z</time></trkpt><trkpt lat="44.4562605" lon="8.7986258"><ele>579.0</ele><time>2026-04-06T10:29:01.295Z</time></trkpt><trkpt lat="44.4562089" lon="8.7985474"><ele>579.0</ele><time>2026-04-06T10:29:35.295Z</time></trkpt><trkpt lat="44.4563128" lon="8.7985204"><ele>579.0</ele><time>2026-04-06T10:30:12.294Z</time></trkpt><trkpt lat="44.4563719" lon="8.7985519"><ele>579.0</ele><time>2026-04-06T10:30:20.295Z</time></trkpt><trkpt lat="44.4564236" lon="8.7986159"><ele>579.0</ele><time>2026-04-06T10:30:28.295Z</time></trkpt><trkpt lat="44.4564778" lon="8.7986742"><ele>579.0</ele><time>2026-04-06T10:30:36.294Z</time></trkpt><trkpt lat="44.4565492" lon="8.7986872"><ele>578.9999999999999</ele><time>2026-04-06T10:30:52.22Z</time></trkpt><trkpt lat="44.4566087" lon="8.798727"><ele>579.0</ele><time>2026-04-06T10:31:04.191Z</time></trkpt><trkpt lat="44.4566741" lon="8.7987284"><ele>579.0</ele><time>2026-04-06T10:31:15.295Z</time></trkpt><trkpt lat="44.4567373" lon="8.7987443"><ele>579.0</ele><time>2026-04-06T10:31:25.295Z</time></trkpt><trkpt lat="44.4568208" lon="8.798839"><ele>579.0</ele><time>2026-04-06T10:31:51.294Z</time></trkpt><trkpt lat="44.4568832" lon="8.7988762"><ele>578.9999999999999</ele><time>2026-04-06T10:32:04.296Z</time></trkpt><trkpt lat="44.4569419" lon="8.7989129"><ele>579.0</ele><time>2026-04-06T10:32:16.294Z</time></trkpt><trkpt lat="44.4570074" lon="8.798927"><ele>578.9999999999999</ele><time>2026-04-06T10:32:29.294Z</time></trkpt><trkpt lat="44.4571034" lon="8.7989735"><ele>579.0</ele><time>2026-04-06T10:33:05.295Z</time></trkpt><trkpt lat="44.4571707" lon="8.7989785"><ele>579.0</ele><time>2026-04-06T10:33:11.294Z</time></trkpt><trkpt lat="44.4572349" lon="8.7990037"><ele>579.0</ele><time>2026-04-06T10:33:44.295Z</time></trkpt><trkpt lat="44.4573032" lon="8.7990386"><ele>579.0</ele><time>2026-04-06T10:33:55.294Z</time></trkpt><trkpt lat="44.4573608" lon="8.7990898"><ele>578.9999999999999</ele><time>2026-04-06T10:34:05.294Z</time></trkpt><trkpt lat="44.4574247" lon="8.7991008"><ele>579.0</ele><time>2026-04-06T10:34:18.294Z</time></trkpt><trkpt lat="44.4574726" lon="8.7991655"><ele>582.7142857142857</ele><time>2026-04-06T10:34:27.294Z</time></trkpt><trkpt lat="44.457527" lon="8.7992141"><ele>586.4285714285714</ele><time>2026-04-06T10:34:36.294Z</time></trkpt><trkpt lat="44.4575893" lon="8.7991779"><ele>590.1428571428571</ele><time>2026-04-06T10:34:53.294Z</time></trkpt><trkpt lat="44.4576512" lon="8.7991534"><ele>593.8571428571429</ele><time>2026-04-06T10:35:04.294Z</time></trkpt><trkpt lat="44.4577192" lon="8.7991653"><ele>597.5714285714286</ele><time>2026-04-06T10:35:14.295Z</time></trkpt><trkpt lat="44.4577769" lon="8.7991174"><ele>601.2857142857142</ele><time>2026-04-06T10:35:22.295Z</time></trkpt><trkpt lat="44.4578438" lon="8.7990927"><ele>605.0</ele><time>2026-04-06T10:35:30.294Z</time></trkpt><trkpt lat="44.4579071" lon="8.7990914"><ele>607.0</ele><time>2026-04-06T10:35:35.294Z</time></trkpt><trkpt lat="44.4579694" lon="8.7991077"><ele>609.0</ele><time>2026-04-06T10:35:41.294Z</time></trkpt><trkpt lat="44.4580359" lon="8.7991368"><ele>611.0</ele><time>2026-04-06T10:35:49.294Z</time></trkpt><trkpt lat="44.4580982" lon="8.799175"><ele>613.0</ele><time>2026-04-06T10:35:57.295Z</time></trkpt><trkpt lat="44.4581614" lon="8.7992119"><ele>615.0</ele><time>2026-04-06T10:36:03.294Z</time></trkpt><trkpt lat="44.4582299" lon="8.7992252"><ele>617.0</ele><time>2026-04-06T10:36:24.294Z</time></trkpt><trkpt lat="44.4582942" lon="8.7991981"><ele>619.0</ele><time>2026-04-06T10:36:32.294Z</time></trkpt><trkpt lat="44.4583602" lon="8.7991954"><ele>619.0</ele><time>2026-04-06T10:36:41.295Z</time></trkpt><trkpt lat="44.4584169" lon="8.799157"><ele>619.0</ele><time>2026-04-06T10:36:50.294Z</time></trkpt><trkpt lat="44.458458" lon="8.7990862"><ele>619.0</ele><time>2026-04-06T10:36:57.294Z</time></trkpt><trkpt lat="44.4585193" lon="8.799054"><ele>619.0</ele><time>2026-04-06T10:37:04.294Z</time></trkpt><trkpt lat="44.4585712" lon="8.7989954"><ele>619.0</ele><time>2026-04-06T10:37:14.294Z</time></trkpt><trkpt lat="44.4586196" lon="8.7989379"><ele>619.0</ele><time>2026-04-06T10:37:30.294Z</time></trkpt><trkpt lat="44.4586805" lon="8.7989115"><ele>619.0</ele><time>2026-04-06T10:37:41.294Z</time></trkpt><trkpt lat="44.4587199" lon="8.7988299"><ele>619.0</ele><time>2026-04-06T10:37:55.294Z</time></trkpt><trkpt lat="44.458749" lon="8.7987483"><ele>619.0</ele><time>2026-04-06T10:38:07.295Z</time></trkpt><trkpt lat="44.4587557" lon="8.7986563"><ele>619.0</ele><time>2026-04-06T10:38:20.294Z</time></trkpt></trkseg><trkseg><trkpt lat="44.4618452" lon="8.7950067"><ele>668.0</ele><time>2026-04-06T10:53:57.295Z</time></trkpt><trkpt lat="44.4619277" lon="8.7949526"><ele>668.0</ele><time>2026-04-06T10:54:14.295Z</time></trkpt><trkpt lat="44.4619958" lon="8.7949278"><ele>668.0</ele><time>2026-04-06T10:54:21.295Z</time></trkpt><trkpt lat="44.4620635" lon="8.7949095"><ele>668.0</ele><time>2026-04-06T10:54:32.296Z</time></trkpt><trkpt lat="44.4621288" lon="8.7949118"><ele>668.0</ele><time>2026-04-06T10:54:50.293Z</time></trkpt><trkpt lat="44.462194" lon="8.7948706"><ele>668.0</ele><time>2026-04-06T10:55:08.298Z</time></trkpt><trkpt lat="44.4622541" lon="8.7948422"><ele>668.0</ele><time>2026-04-06T10:55:18.294Z</time></trkpt><trkpt lat="44.4623177" lon="8.7948479"><ele>672.4285714285714</ele><time>2026-04-06T10:55:46.291Z</time></trkpt><trkpt lat="44.4623748" lon="8.7948073"><ele>676.8571428571429</ele><time>2026-04-06T10:55:54.298Z</time></trkpt><trkpt lat="44.462452" lon="8.7948257"><ele>681.2857142857142</ele><time>2026-04-06T10:56:09.294Z</time></trkpt><trkpt lat="44.462516" lon="8.7948374"><ele>685.7142857142858</ele><time>2026-04-06T10:56:24.3Z</time></trkpt><trkpt lat="44.4625884" lon="8.7948478"><ele>690.1428571428572</ele><time>2026-04-06T10:56:44.293Z</time></trkpt><trkpt lat="44.4626505" lon="8.7948306"><ele>694.5714285714286</ele><time>2026-04-06T10:56:57.294Z</time></trkpt><trkpt lat="44.462713" lon="8.7948087"><ele>699.0</ele><time>2026-04-06T10:57:05.303Z</time></trkpt><trkpt lat="44.4627782" lon="8.7948163"><ele>699.0</ele><time>2026-04-06T10:57:15.295Z</time></trkpt><trkpt lat="44.4628431" lon="8.7948237"><ele>699.0</ele><time>2026-04-06T10:57:44.297Z</time></trkpt><trkpt lat="44.4629018" lon="8.7947878"><ele>699.0</ele><time>2026-04-06T10:58:07.297Z</time></trkpt><trkpt lat="44.4629689" lon="8.7947886"><ele>699.0</ele><time>2026-04-06T10:58:16.297Z</time></trkpt><trkpt lat="44.4630376" lon="8.7947875"><ele>699.0</ele><time>2026-04-06T10:58:26.297Z</time></trkpt><trkpt lat="44.4631273" lon="8.7947232"><ele>699.0</ele><time>2026-04-06T10:58:53.297Z</time></trkpt><trkpt lat="44.4631892" lon="8.7947044"><ele>699.0</ele><time>2026-04-06T10:59:00.297Z</time></trkpt><trkpt lat="44.4632554" lon="8.7947436"><ele>701.4285714285714</ele><time>2026-04-06T10:59:12.297Z</time></trkpt><trkpt lat="44.4633482" lon="8.7947412"><ele>703.8571428571429</ele><time>2026-04-06T10:59:41.297Z</time></trkpt><trkpt lat="44.4634125" lon="8.7947094"><ele>706.2857142857143</ele><time>2026-04-06T11:00:12.297Z</time></trkpt><trkpt lat="44.463481" lon="8.7947254"><ele>708.7142857142858</ele><time>2026-04-06T11:00:21.297Z</time></trkpt><trkpt lat="44.4635452" lon="8.7947091"><ele>711.1428571428571</ele><time>2026-04-06T11:00:30.297Z</time></trkpt><trkpt lat="44.4635038" lon="8.7947764"><ele>713.5714285714287</ele><time>2026-04-06T11:00:53.297Z</time></trkpt><trkpt lat="44.4634423" lon="8.7947961"><ele>716.0</ele><time>2026-04-06T11:01:00.297Z</time></trkpt><trkpt lat="44.4633756" lon="8.7948187"><ele>716.0000000000001</ele><time>2026-04-06T11:01:08.297Z</time></trkpt><trkpt lat="44.4633094" lon="8.7948471"><ele>716.0</ele><time>2026-04-06T11:01:20.297Z</time></trkpt><trkpt lat="44.4632465" lon="8.7948575"><ele>716.0</ele><time>2026-04-06T11:01:27.297Z</time></trkpt><trkpt lat="44.463181" lon="8.7948783"><ele>716.0</ele><time>2026-04-06T11:01:43.297Z</time></trkpt><trkpt lat="44.4631183" lon="8.7948965"><ele>716.0</ele><time>2026-04-06T11:01:50.297Z</time></trkpt><trkpt lat="44.4630482" lon="8.7949213"><ele>716.0000000000001</ele><time>2026-04-06T11:02:04.297Z</time></trkpt><trkpt lat="44.4629774" lon="8.7949541"><ele>716.0</ele><time>2026-04-06T11:02:13.297Z</time></trkpt><trkpt lat="44.4629036" lon="8.7949762"><ele>713.5714285714287</ele><time>2026-04-06T11:02:34.297Z</time></trkpt><trkpt lat="44.4628324" lon="8.7950013"><ele>711.1428571428571</ele><time>2026-04-06T11:02:40.297Z</time></trkpt><trkpt lat="44.4627721" lon="8.7950299"><ele>708.7142857142858</ele><time>2026-04-06T11:02:48.297Z</time></trkpt><trkpt lat="44.4627045" lon="8.7950512"><ele>706.2857142857143</ele><time>2026-04-06T11:02:56.297Z</time></trkpt><trkpt lat="44.4626396" lon="8.7950686"><ele>703.8571428571429</ele><time>2026-04-06T11:03:05.236Z</time></trkpt><trkpt lat="44.4625756" lon="8.7950895"><ele>701.4285714285714</ele><time>2026-04-06T11:03:13.297Z</time></trkpt><trkpt lat="44.4625125" lon="8.7951155"><ele>699.0</ele><time>2026-04-06T11:03:21.297Z</time></trkpt><trkpt lat="44.462447" lon="8.7951433"><ele>699.8571428571428</ele><time>2026-04-06T11:03:29.297Z</time></trkpt><trkpt lat="44.4623868" lon="8.7951715"><ele>700.7142857142858</ele><time>2026-04-06T11:03:36.297Z</time></trkpt><trkpt lat="44.4623265" lon="8.7952232"><ele>701.5714285714286</ele><time>2026-04-06T11:03:46.297Z</time></trkpt><trkpt lat="44.462276" lon="8.7952851"><ele>702.4285714285713</ele><time>2026-04-06T11:03:55.298Z</time></trkpt><trkpt lat="44.4622396" lon="8.7953631"><ele>703.2857142857142</ele><time>2026-04-06T11:04:03.297Z</time></trkpt><trkpt lat="44.462195" lon="8.7954592"><ele>704.1428571428571</ele><time>2026-04-06T11:04:19.297Z</time></trkpt><trkpt lat="44.4621674" lon="8.7955455"><ele>705.0</ele><time>2026-04-06T11:04:29.297Z</time></trkpt><trkpt lat="44.4621452" lon="8.7956352"><ele>704.9999999999999</ele><time>2026-04-06T11:04:36.278Z</time></trkpt><trkpt lat="44.4621255" lon="8.7957203"><ele>705.0</ele><time>2026-04-06T11:04:42.297Z</time></trkpt><trkpt lat="44.4620983" lon="8.7958166"><ele>705.0</ele><time>2026-04-06T11:04:50.297Z</time></trkpt><trkpt lat="44.4620801" lon="8.7959016"><ele>705.0</ele><time>2026-04-06T11:04:57.297Z</time></trkpt><trkpt lat="44.4620594" lon="8.7959941"><ele>705.0</ele><time>2026-04-06T11:05:04.297Z</time></trkpt><trkpt lat="44.4620432" lon="8.7960888"><ele>704.9999999999999</ele><time>2026-04-06T11:05:12.217Z</time></trkpt><trkpt lat="44.4620374" lon="8.796181"><ele>705.0</ele><time>2026-04-06T11:05:19.297Z</time></trkpt><trkpt lat="44.4620459" lon="8.7962719"><ele>703.1428571428571</ele><time>2026-04-06T11:05:25.297Z</time></trkpt><trkpt lat="44.4620488" lon="8.7963741"><ele>701.2857142857142</ele><time>2026-04-06T11:05:32.297Z</time></trkpt><trkpt lat="44.4620424" lon="8.7964667"><ele>699.4285714285713</ele><time>2026-04-06T11:05:38.297Z</time></trkpt><trkpt lat="44.4619947" lon="8.7965356"><ele>697.5714285714286</ele><time>2026-04-06T11:05:45.297Z</time></trkpt><trkpt lat="44.4619483" lon="8.7966085"><ele>695.7142857142858</ele><time>2026-04-06T11:05:52.297Z</time></trkpt><trkpt lat="44.4618921" lon="8.7966573"><ele>693.8571428571428</ele><time>2026-04-06T11:05:59.278Z</time></trkpt><trkpt lat="44.4618422" lon="8.7967229"><ele>692.0</ele><time>2026-04-06T11:06:06.279Z</time></trkpt><trkpt lat="44.4617916" lon="8.7967879"><ele>691.2857142857142</ele><time>2026-04-06T11:06:16.217Z</time></trkpt><trkpt lat="44.4617364" lon="8.7968579"><ele>690.5714285714287</ele><time>2026-04-06T11:06:24.297Z</time></trkpt><trkpt lat="44.4616843" lon="8.7969345"><ele>689.8571428571429</ele><time>2026-04-06T11:06:33.297Z</time></trkpt><trkpt lat="44.4616542" lon="8.7970134"><ele>689.1428571428571</ele><time>2026-04-06T11:06:40.297Z</time></trkpt><trkpt lat="44.4616161" lon="8.7970838"><ele>688.4285714285713</ele><time>2026-04-06T11:06:47.297Z</time></trkpt><trkpt lat="44.4615733" lon="8.7971529"><ele>687.7142857142858</ele><time>2026-04-06T11:06:54.297Z</time></trkpt><trkpt lat="44.4615351" lon="8.7972237"><ele>687.0</ele><time>2026-04-06T11:07:01.297Z</time></trkpt><trkpt lat="44.4614887" lon="8.7972925"><ele>687.0</ele><time>2026-04-06T11:07:09.297Z</time></trkpt><trkpt lat="44.4614436" lon="8.7973685"><ele>687.0</ele><time>2026-04-06T11:07:18.297Z</time></trkpt><trkpt lat="44.4614" lon="8.7974361"><ele>687.0</ele><time>2026-04-06T11:07:25.297Z</time></trkpt><trkpt lat="44.4613482" lon="8.7974987"><ele>687.0</ele><time>2026-04-06T11:07:33.298Z</time></trkpt><trkpt lat="44.4612817" lon="8.7975351"><ele>690.0</ele><time>2026-04-06T11:07:43.297Z</time></trkpt><trkpt lat="44.4612285" lon="8.7975867"><ele>690.0</ele><time>2026-04-06T11:09:02.297Z</time></trkpt><trkpt lat="44.4611631" lon="8.7976092"><ele>690.0</ele><time>2026-04-06T11:09:10.354Z</time></trkpt></trkseg></trk></gpx>